sensor_id;sensor_type;location;lat;lon;timestamp;temperature;humidity
13268;DHT22;6702;47.068;15.458;2023-07-02T00:02:58;20.70;94.80
13268;DHT22;6702;47.068;15.458;2023-07-02T00:06:02;20.70;94.80
13268;DHT22;6702;47.068;15.458;2023-07-02T00:09:07;20.70;95.00
13268;DHT22;6702;47.068;15.458;2023-07-02T00:12:10;20.70;95.30
13268;DHT22;6702;47.068;15.458;2023-07-02T00:15:14;20.70;95.40
13268;DHT22;6702;47.068;15.458;2023-07-02T00:18:17;20.70;95.50
13268;DHT22;6702;47.068;15.458;2023-07-02T00:21:20;20.70;95.60
13268;DHT22;6702;47.068;15.458;2023-07-02T00:24:24;20.70;95.70
13268;DHT22;6702;47.068;15.458;2023-07-02T00:27:28;20.60;96.00
13268;DHT22;6702;47.068;15.458;2023-07-02T00:30:31;20.50;96.50
13268;DHT22;6702;47.068;15.458;2023-07-02T00:33:34;20.50;96.50
13268;DHT22;6702;47.068;15.458;2023-07-02T00:36:37;20.50;96.70
13268;DHT22;6702;47.068;15.458;2023-07-02T00:39:42;20.40;96.90
13268;DHT22;6702;47.068;15.458;2023-07-02T00:42:45;20.50;97.00
13268;DHT22;6702;47.068;15.458;2023-07-02T00:45:48;20.50;97.00
13268;DHT22;6702;47.068;15.458;2023-07-02T00:48:54;20.50;97.30
13268;DHT22;6702;47.068;15.458;2023-07-02T00:51:57;20.40;97.30
13268;DHT22;6702;47.068;15.458;2023-07-02T00:55:03;20.40;97.30
13268;DHT22;6702;47.068;15.458;2023-07-02T00:58:06;20.40;97.30
13268;DHT22;6702;47.068;15.458;2023-07-02T01:01:10;20.40;97.70
13268;DHT22;6702;47.068;15.458;2023-07-02T01:04:13;20.40;97.70
13268;DHT22;6702;47.068;15.458;2023-07-02T01:07:16;20.30;98.00
13268;DHT22;6702;47.068;15.458;2023-07-02T01:10:21;20.30;98.20
13268;DHT22;6702;47.068;15.458;2023-07-02T01:13:24;20.30;98.40
13268;DHT22;6702;47.068;15.458;2023-07-02T01:16:30;20.20;98.50
13268;DHT22;6702;47.068;15.458;2023-07-02T01:19:46;20.20;98.70
13268;DHT22;6702;47.068;15.458;2023-07-02T01:22:53;20.20;98.90
13268;DHT22;6702;47.068;15.458;2023-07-02T01:25:56;20.20;99.10
13268;DHT22;6702;47.068;15.458;2023-07-02T01:29:14;20.20;99.30
13268;DHT22;6702;47.068;15.458;2023-07-02T01:32:17;20.20;99.10
13268;DHT22;6702;47.068;15.458;2023-07-02T01:35:24;20.30;99.00
13268;DHT22;6702;47.068;15.458;2023-07-02T01:38:27;20.20;98.90
13268;DHT22;6702;47.068;15.458;2023-07-02T01:41:33;20.20;98.80
13268;DHT22;6702;47.068;15.458;2023-07-02T01:44:37;20.20;98.80
13268;DHT22;6702;47.068;15.458;2023-07-02T01:47:40;20.20;98.80
13268;DHT22;6702;47.068;15.458;2023-07-02T01:50:45;20.20;98.70
13268;DHT22;6702;47.068;15.458;2023-07-02T01:53:48;20.20;98.70
13268;DHT22;6702;47.068;15.458;2023-07-02T01:56:52;20.20;98.80
13268;DHT22;6702;47.068;15.458;2023-07-02T01:59:55;20.10;98.70
13268;DHT22;6702;47.068;15.458;2023-07-02T02:02:58;20.00;98.60
13268;DHT22;6702;47.068;15.458;2023-07-02T02:06:03;20.00;98.50
13268;DHT22;6702;47.068;15.458;2023-07-02T02:09:06;19.90;99.00
13268;DHT22;6702;47.068;15.458;2023-07-02T02:12:11;19.90;99.10
13268;DHT22;6702;47.068;15.458;2023-07-02T02:15:16;19.90;99.90
13268;DHT22;6702;47.068;15.458;2023-07-02T02:18:19;20.10;99.30
13268;DHT22;6702;47.068;15.458;2023-07-02T02:21:23;20.30;99.50
13268;DHT22;6702;47.068;15.458;2023-07-02T02:24:26;20.40;99.10
13268;DHT22;6702;47.068;15.458;2023-07-02T02:27:30;20.70;98.40
13268;DHT22;6702;47.068;15.458;2023-07-02T02:30:33;20.60;97.50
13268;DHT22;6702;47.068;15.458;2023-07-02T02:33:37;20.60;97.80
13268;DHT22;6702;47.068;15.458;2023-07-02T02:36:42;20.50;97.30
13268;DHT22;6702;47.068;15.458;2023-07-02T02:39:45;20.50;97.30
13268;DHT22;6702;47.068;15.458;2023-07-02T02:42:48;20.50;97.30
13268;DHT22;6702;47.068;15.458;2023-07-02T02:45:51;20.50;97.30
13268;DHT22;6702;47.068;15.458;2023-07-02T02:48:55;20.40;97.30
13268;DHT22;6702;47.068;15.458;2023-07-02T02:51:59;20.50;97.60
13268;DHT22;6702;47.068;15.458;2023-07-02T02:55:03;20.40;97.30
13268;DHT22;6702;47.068;15.458;2023-07-02T02:58:06;20.40;97.60
13268;DHT22;6702;47.068;15.458;2023-07-02T03:01:09;20.50;97.30
13268;DHT22;6702;47.068;15.458;2023-07-02T03:04:13;20.50;97.30
13268;DHT22;6702;47.068;15.458;2023-07-02T03:07:17;20.50;97.20
13268;DHT22;6702;47.068;15.458;2023-07-02T03:10:21;20.30;97.10
13268;DHT22;6702;47.068;15.458;2023-07-02T03:13:24;20.30;97.20
13268;DHT22;6702;47.068;15.458;2023-07-02T03:16:27;20.20;97.20
13268;DHT22;6702;47.068;15.458;2023-07-02T03:19:30;20.20;97.30
13268;DHT22;6702;47.068;15.458;2023-07-02T03:22:35;20.10;97.50
13268;DHT22;6702;47.068;15.458;2023-07-02T03:25:38;20.10;97.70
13268;DHT22;6702;47.068;15.458;2023-07-02T03:28:41;20.00;97.60
13268;DHT22;6702;47.068;15.458;2023-07-02T03:31:45;19.90;97.70
13268;DHT22;6702;47.068;15.458;2023-07-02T03:34:48;19.90;97.90
13268;DHT22;6702;47.068;15.458;2023-07-02T03:37:52;19.80;97.90
13268;DHT22;6702;47.068;15.458;2023-07-02T03:40:55;19.80;98.00
13268;DHT22;6702;47.068;15.458;2023-07-02T03:43:59;19.70;98.10
13268;DHT22;6702;47.068;15.458;2023-07-02T03:47:02;19.70;98.10
13268;DHT22;6702;47.068;15.458;2023-07-02T03:50:05;19.70;98.30
13268;DHT22;6702;47.068;15.458;2023-07-02T03:53:10;19.70;98.30
13268;DHT22;6702;47.068;15.458;2023-07-02T03:56:13;19.70;98.40
13268;DHT22;6702;47.068;15.458;2023-07-02T03:59:16;19.70;98.30
13268;DHT22;6702;47.068;15.458;2023-07-02T04:02:20;19.70;98.20
13268;DHT22;6702;47.068;15.458;2023-07-02T04:05:23;19.70;98.40
13268;DHT22;6702;47.068;15.458;2023-07-02T04:08:27;19.80;98.50
13268;DHT22;6702;47.068;15.458;2023-07-02T04:11:31;19.90;98.40
13268;DHT22;6702;47.068;15.458;2023-07-02T04:14:34;20.00;98.20
13268;DHT22;6702;47.068;15.458;2023-07-02T04:17:37;20.10;98.00
13268;DHT22;6702;47.068;15.458;2023-07-02T04:20:40;20.20;97.80
13268;DHT22;6702;47.068;15.458;2023-07-02T04:23:45;20.20;97.70
13268;DHT22;6702;47.068;15.458;2023-07-02T04:26:49;20.10;97.80
13268;DHT22;6702;47.068;15.458;2023-07-02T04:30:12;20.20;97.90
13268;DHT22;6702;47.068;15.458;2023-07-02T04:33:16;20.30;97.70
13268;DHT22;6702;47.068;15.458;2023-07-02T04:36:20;20.30;97.60
13268;DHT22;6702;47.068;15.458;2023-07-02T04:39:24;20.30;97.60
13268;DHT22;6702;47.068;15.458;2023-07-02T04:42:27;20.30;97.50
13268;DHT22;6702;47.068;15.458;2023-07-02T04:45:33;20.30;97.70
13268;DHT22;6702;47.068;15.458;2023-07-02T04:48:38;20.20;97.80
13268;DHT22;6702;47.068;15.458;2023-07-02T04:51:41;20.20;97.80
13268;DHT22;6702;47.068;15.458;2023-07-02T04:54:46;20.20;97.90
13268;DHT22;6702;47.068;15.458;2023-07-02T04:57:49;20.20;98.00
13268;DHT22;6702;47.068;15.458;2023-07-02T05:00:52;20.20;97.90
13268;DHT22;6702;47.068;15.458;2023-07-02T05:03:56;20.30;98.00
13268;DHT22;6702;47.068;15.458;2023-07-02T05:07:00;20.40;97.80
13268;DHT22;6702;47.068;15.458;2023-07-02T05:10:05;20.40;97.50
13268;DHT22;6702;47.068;15.458;2023-07-02T05:13:08;20.50;97.60
13268;DHT22;6702;47.068;15.458;2023-07-02T05:16:11;20.60;97.80
13268;DHT22;6702;47.068;15.458;2023-07-02T05:19:15;20.60;98.30
13268;DHT22;6702;47.068;15.458;2023-07-02T05:22:18;20.80;98.10
13268;DHT22;6702;47.068;15.458;2023-07-02T05:25:23;20.90;98.00
13268;DHT22;6702;47.068;15.458;2023-07-02T05:28:26;21.10;97.70
13268;DHT22;6702;47.068;15.458;2023-07-02T05:31:29;21.30;97.70
13268;DHT22;6702;47.068;15.458;2023-07-02T05:34:32;21.40;97.90
13268;DHT22;6702;47.068;15.458;2023-07-02T05:37:35;21.50;97.90
13268;DHT22;6702;47.068;15.458;2023-07-02T05:40:40;21.60;97.90
13268;DHT22;6702;47.068;15.458;2023-07-02T05:43:43;21.70;97.80
13268;DHT22;6702;47.068;15.458;2023-07-02T05:46:46;22.00;97.20
13268;DHT22;6702;47.068;15.458;2023-07-02T05:49:49;22.20;96.60
13268;DHT22;6702;47.068;15.458;2023-07-02T05:52:52;22.20;95.90
13268;DHT22;6702;47.068;15.458;2023-07-02T05:55:57;22.20;96.20
13268;DHT22;6702;47.068;15.458;2023-07-02T05:59:00;22.30;95.90
13268;DHT22;6702;47.068;15.458;2023-07-02T06:02:03;22.20;95.30
13268;DHT22;6702;47.068;15.458;2023-07-02T06:05:07;22.10;95.50
13268;DHT22;6702;47.068;15.458;2023-07-02T06:08:11;22.20;95.60
13268;DHT22;6702;47.068;15.458;2023-07-02T06:11:15;22.20;95.60
13268;DHT22;6702;47.068;15.458;2023-07-02T06:14:19;22.20;95.70
13268;DHT22;6702;47.068;15.458;2023-07-02T06:17:22;22.20;95.50
13268;DHT22;6702;47.068;15.458;2023-07-02T06:20:27;22.20;95.40
13268;DHT22;6702;47.068;15.458;2023-07-02T06:23:38;22.30;95.50
13268;DHT22;6702;47.068;15.458;2023-07-02T06:26:43;22.40;95.60
13268;DHT22;6702;47.068;15.458;2023-07-02T06:29:46;22.60;96.20
13268;DHT22;6702;47.068;15.458;2023-07-02T06:32:49;22.90;95.70
13268;DHT22;6702;47.068;15.458;2023-07-02T06:35:53;23.10;95.70
13268;DHT22;6702;47.068;15.458;2023-07-02T06:38:56;23.20;95.40
13268;DHT22;6702;47.068;15.458;2023-07-02T06:42:00;23.40;95.30
13268;DHT22;6702;47.068;15.458;2023-07-02T06:45:05;23.50;95.10
13268;DHT22;6702;47.068;15.458;2023-07-02T06:48:08;23.60;95.10
13268;DHT22;6702;47.068;15.458;2023-07-02T06:51:11;23.60;95.10
13268;DHT22;6702;47.068;15.458;2023-07-02T06:54:16;23.60;95.30
13268;DHT22;6702;47.068;15.458;2023-07-02T06:57:21;24.10;95.10
13268;DHT22;6702;47.068;15.458;2023-07-02T07:00:25;25.20;93.60
13268;DHT22;6702;47.068;15.458;2023-07-02T07:03:28;26.00;90.90
13268;DHT22;6702;47.068;15.458;2023-07-02T07:06:31;27.10;89.00
13268;DHT22;6702;47.068;15.458;2023-07-02T07:09:35;28.60;83.80
13268;DHT22;6702;47.068;15.458;2023-07-02T07:12:40;29.90;79.80
13268;DHT22;6702;47.068;15.458;2023-07-02T07:15:43;30.80;73.50
13268;DHT22;6702;47.068;15.458;2023-07-02T07:18:46;30.50;71.00
13268;DHT22;6702;47.068;15.458;2023-07-02T07:21:49;30.70;69.00
13268;DHT22;6702;47.068;15.458;2023-07-02T07:24:52;31.70;68.20
13268;DHT22;6702;47.068;15.458;2023-07-02T07:27:59;33.10;63.40
13268;DHT22;6702;47.068;15.458;2023-07-02T07:31:02;34.50;59.20
13268;DHT22;6702;47.068;15.458;2023-07-02T07:34:05;35.70;54.10
13268;DHT22;6702;47.068;15.458;2023-07-02T07:37:08;36.80;49.80
13268;DHT22;6702;47.068;15.458;2023-07-02T07:40:12;36.60;48.00
13268;DHT22;6702;47.068;15.458;2023-07-02T07:43:17;35.40;48.50
13268;DHT22;6702;47.068;15.458;2023-07-02T07:46:20;34.00;49.70
13268;DHT22;6702;47.068;15.458;2023-07-02T07:49:26;32.80;51.60
13268;DHT22;6702;47.068;15.458;2023-07-02T07:52:29;32.20;52.80
13268;DHT22;6702;47.068;15.458;2023-07-02T07:55:32;31.60;53.50
13268;DHT22;6702;47.068;15.458;2023-07-02T07:58:37;31.00;55.50
13268;DHT22;6702;47.068;15.458;2023-07-02T08:01:40;30.60;55.30
13268;DHT22;6702;47.068;15.458;2023-07-02T08:04:43;29.90;56.90
13268;DHT22;6702;47.068;15.458;2023-07-02T08:07:47;29.60;57.70
13268;DHT22;6702;47.068;15.458;2023-07-02T08:10:50;29.30;57.90
13268;DHT22;6702;47.068;15.458;2023-07-02T08:13:55;29.10;58.50
13268;DHT22;6702;47.068;15.458;2023-07-02T08:16:58;29.10;58.00
13268;DHT22;6702;47.068;15.458;2023-07-02T08:20:01;29.20;57.30
13268;DHT22;6702;47.068;15.458;2023-07-02T08:23:06;29.40;57.50
13268;DHT22;6702;47.068;15.458;2023-07-02T08:26:09;29.80;57.00
13268;DHT22;6702;47.068;15.458;2023-07-02T08:29:15;29.70;57.00
13268;DHT22;6702;47.068;15.458;2023-07-02T08:32:18;29.50;57.50
13268;DHT22;6702;47.068;15.458;2023-07-02T08:35:22;29.30;56.60
13268;DHT22;6702;47.068;15.458;2023-07-02T08:38:25;29.30;57.90
13268;DHT22;6702;47.068;15.458;2023-07-02T08:41:29;28.90;58.60
13268;DHT22;6702;47.068;15.458;2023-07-02T08:44:34;28.70;59.30
13268;DHT22;6702;47.068;15.458;2023-07-02T08:47:38;28.40;59.70
13268;DHT22;6702;47.068;15.458;2023-07-02T08:50:42;28.30;60.00
13268;DHT22;6702;47.068;15.458;2023-07-02T08:53:46;28.30;60.50
13268;DHT22;6702;47.068;15.458;2023-07-02T08:56:49;28.50;61.30
13268;DHT22;6702;47.068;15.458;2023-07-02T08:59:53;28.80;60.80
13268;DHT22;6702;47.068;15.458;2023-07-02T09:02:56;29.10;59.90
13268;DHT22;6702;47.068;15.458;2023-07-02T09:06:00;29.10;60.60
13268;DHT22;6702;47.068;15.458;2023-07-02T09:09:04;29.20;59.10
13268;DHT22;6702;47.068;15.458;2023-07-02T09:12:08;29.40;58.50
13268;DHT22;6702;47.068;15.458;2023-07-02T09:15:14;29.60;58.40
13268;DHT22;6702;47.068;15.458;2023-07-02T09:18:18;29.60;57.70
13268;DHT22;6702;47.068;15.458;2023-07-02T09:21:37;29.50;57.60
13268;DHT22;6702;47.068;15.458;2023-07-02T09:24:51;29.50;58.10
13268;DHT22;6702;47.068;15.458;2023-07-02T09:27:55;29.70;58.20
13268;DHT22;6702;47.068;15.458;2023-07-02T09:30:59;29.80;57.90
13268;DHT22;6702;47.068;15.458;2023-07-02T09:34:03;30.10;57.30
13268;DHT22;6702;47.068;15.458;2023-07-02T09:37:06;30.30;56.90
13268;DHT22;6702;47.068;15.458;2023-07-02T09:40:10;30.70;56.00
13268;DHT22;6702;47.068;15.458;2023-07-02T09:43:17;31.00;55.10
13268;DHT22;6702;47.068;15.458;2023-07-02T09:46:25;30.90;54.40
13268;DHT22;6702;47.068;15.458;2023-07-02T09:49:31;30.70;55.10
13268;DHT22;6702;47.068;15.458;2023-07-02T09:52:35;30.80;55.00
13268;DHT22;6702;47.068;15.458;2023-07-02T09:55:39;31.00;53.90
13268;DHT22;6702;47.068;15.458;2023-07-02T09:58:44;31.00;53.20
13268;DHT22;6702;47.068;15.458;2023-07-02T10:01:49;30.80;52.70
13268;DHT22;6702;47.068;15.458;2023-07-02T10:04:52;30.70;52.60
13268;DHT22;6702;47.068;15.458;2023-07-02T10:08:11;30.80;52.20
13268;DHT22;6702;47.068;15.458;2023-07-02T10:11:14;30.70;52.30
13268;DHT22;6702;47.068;15.458;2023-07-02T10:14:17;30.70;52.20
13268;DHT22;6702;47.068;15.458;2023-07-02T10:17:26;30.80;52.70
13268;DHT22;6702;47.068;15.458;2023-07-02T10:20:32;30.90;52.40
13268;DHT22;6702;47.068;15.458;2023-07-02T10:23:37;31.00;52.30
13268;DHT22;6702;47.068;15.458;2023-07-02T10:26:51;31.00;52.60
13268;DHT22;6702;47.068;15.458;2023-07-02T10:29:55;30.70;51.90
13268;DHT22;6702;47.068;15.458;2023-07-02T10:33:10;30.50;52.40
13268;DHT22;6702;47.068;15.458;2023-07-02T10:36:23;30.30;51.90
13268;DHT22;6702;47.068;15.458;2023-07-02T10:39:29;30.20;52.10
13268;DHT22;6702;47.068;15.458;2023-07-02T10:42:33;30.30;52.30
13268;DHT22;6702;47.068;15.458;2023-07-02T10:45:36;30.30;52.90
13268;DHT22;6702;47.068;15.458;2023-07-02T10:48:55;30.40;51.80
13268;DHT22;6702;47.068;15.458;2023-07-02T10:51:59;30.50;50.80
13268;DHT22;6702;47.068;15.458;2023-07-02T10:55:05;30.50;50.20
13268;DHT22;6702;47.068;15.458;2023-07-02T10:58:14;30.50;50.40
13268;DHT22;6702;47.068;15.458;2023-07-02T11:01:23;30.50;51.20
13268;DHT22;6702;47.068;15.458;2023-07-02T11:04:29;30.30;53.70
13268;DHT22;6702;47.068;15.458;2023-07-02T11:07:32;30.40;55.10
13268;DHT22;6702;47.068;15.458;2023-07-02T11:10:36;30.60;54.40
13268;DHT22;6702;47.068;15.458;2023-07-02T11:13:45;30.50;54.70
13268;DHT22;6702;47.068;15.458;2023-07-02T11:16:54;30.60;54.40
13268;DHT22;6702;47.068;15.458;2023-07-02T11:19:59;30.80;54.40
13268;DHT22;6702;47.068;15.458;2023-07-02T11:23:05;30.90;53.80
13268;DHT22;6702;47.068;15.458;2023-07-02T11:26:08;30.90;53.40
13268;DHT22;6702;47.068;15.458;2023-07-02T11:29:11;30.70;54.10
13268;DHT22;6702;47.068;15.458;2023-07-02T11:32:17;30.70;54.10
13268;DHT22;6702;47.068;15.458;2023-07-02T11:35:34;30.80;53.80
13268;DHT22;6702;47.068;15.458;2023-07-02T11:38:37;30.80;53.00
13268;DHT22;6702;47.068;15.458;2023-07-02T11:41:41;30.80;55.70
13268;DHT22;6702;47.068;15.458;2023-07-02T11:44:46;30.50;54.10
13268;DHT22;6702;47.068;15.458;2023-07-02T11:47:52;30.40;53.80
13268;DHT22;6702;47.068;15.458;2023-07-02T11:51:00;30.40;54.60
13268;DHT22;6702;47.068;15.458;2023-07-02T11:54:03;30.10;54.50
13268;DHT22;6702;47.068;15.458;2023-07-02T11:57:07;30.00;54.90
13268;DHT22;6702;47.068;15.458;2023-07-02T12:00:11;30.30;54.70
13268;DHT22;6702;47.068;15.458;2023-07-02T12:03:17;30.30;54.20
13268;DHT22;6702;47.068;15.458;2023-07-02T12:06:22;30.40;53.90
13268;DHT22;6702;47.068;15.458;2023-07-02T12:09:27;30.60;54.30
13268;DHT22;6702;47.068;15.458;2023-07-02T12:12:30;30.80;53.70
13268;DHT22;6702;47.068;15.458;2023-07-02T12:15:36;30.70;54.40
13268;DHT22;6702;47.068;15.458;2023-07-02T12:18:40;30.70;53.20
13268;DHT22;6702;47.068;15.458;2023-07-02T12:21:47;30.60;52.50
13268;DHT22;6702;47.068;15.458;2023-07-02T12:24:50;30.70;54.20
13268;DHT22;6702;47.068;15.458;2023-07-02T12:27:55;30.40;57.20
13268;DHT22;6702;47.068;15.458;2023-07-02T12:31:04;30.20;58.60
13268;DHT22;6702;47.068;15.458;2023-07-02T12:34:08;30.00;59.40
13268;DHT22;6702;47.068;15.458;2023-07-02T12:37:13;29.80;60.00
13268;DHT22;6702;47.068;15.458;2023-07-02T12:40:20;29.60;61.10
13268;DHT22;6702;47.068;15.458;2023-07-02T12:43:26;29.30;62.20
13268;DHT22;6702;47.068;15.458;2023-07-02T12:46:29;28.80;63.80
13268;DHT22;6702;47.068;15.458;2023-07-02T12:49:33;28.40;65.00
13268;DHT22;6702;47.068;15.458;2023-07-02T12:52:39;28.00;66.60
13268;DHT22;6702;47.068;15.458;2023-07-02T12:55:46;27.80;67.90
13268;DHT22;6702;47.068;15.458;2023-07-02T12:58:52;27.50;68.60
13268;DHT22;6702;47.068;15.458;2023-07-02T13:01:57;27.40;68.90
13268;DHT22;6702;47.068;15.458;2023-07-02T13:05:00;27.40;68.80
13268;DHT22;6702;47.068;15.458;2023-07-02T13:08:10;27.40;69.10
13268;DHT22;6702;47.068;15.458;2023-07-02T13:11:18;27.50;69.20
13268;DHT22;6702;47.068;15.458;2023-07-02T13:14:26;27.60;69.70
13268;DHT22;6702;47.068;15.458;2023-07-02T13:17:31;27.80;69.00
13268;DHT22;6702;47.068;15.458;2023-07-02T13:20:38;28.10;68.60
13268;DHT22;6702;47.068;15.458;2023-07-02T13:23:45;28.50;66.80
13268;DHT22;6702;47.068;15.458;2023-07-02T13:26:48;28.80;65.10
13268;DHT22;6702;47.068;15.458;2023-07-02T13:29:51;28.90;65.20
13268;DHT22;6702;47.068;15.458;2023-07-02T13:32:56;28.90;62.80
13268;DHT22;6702;47.068;15.458;2023-07-02T13:36:00;29.10;62.50
13268;DHT22;6702;47.068;15.458;2023-07-02T13:39:08;29.20;61.50
13268;DHT22;6702;47.068;15.458;2023-07-02T13:42:14;28.90;60.70
13268;DHT22;6702;47.068;15.458;2023-07-02T13:45:18;28.80;61.50
13268;DHT22;6702;47.068;15.458;2023-07-02T13:48:22;28.90;62.00
13268;DHT22;6702;47.068;15.458;2023-07-02T13:51:29;28.90;61.20
13268;DHT22;6702;47.068;15.458;2023-07-02T13:54:46;29.00;62.30
13268;DHT22;6702;47.068;15.458;2023-07-02T13:57:53;29.10;61.50
13268;DHT22;6702;47.068;15.458;2023-07-02T14:01:00;29.20;61.20
13268;DHT22;6702;47.068;15.458;2023-07-02T14:04:04;29.20;59.80
13268;DHT22;6702;47.068;15.458;2023-07-02T14:07:09;29.50;59.40
13268;DHT22;6702;47.068;15.458;2023-07-02T14:10:13;29.80;58.20
13268;DHT22;6702;47.068;15.458;2023-07-02T14:13:18;29.90;58.40
13268;DHT22;6702;47.068;15.458;2023-07-02T14:16:23;29.80;58.40
13268;DHT22;6702;47.068;15.458;2023-07-02T14:19:27;29.80;57.70
13268;DHT22;6702;47.068;15.458;2023-07-02T14:22:34;29.80;58.30
13268;DHT22;6702;47.068;15.458;2023-07-02T14:25:39;29.70;57.90
13268;DHT22;6702;47.068;15.458;2023-07-02T14:28:45;29.70;57.80
13268;DHT22;6702;47.068;15.458;2023-07-02T14:31:55;29.80;58.30
13268;DHT22;6702;47.068;15.458;2023-07-02T14:35:04;30.10;58.20
13268;DHT22;6702;47.068;15.458;2023-07-02T14:38:08;30.30;57.10
13268;DHT22;6702;47.068;15.458;2023-07-02T14:41:13;30.20;57.20
13268;DHT22;6702;47.068;15.458;2023-07-02T14:44:16;30.10;57.60
13268;DHT22;6702;47.068;15.458;2023-07-02T14:47:21;30.00;58.00
13268;DHT22;6702;47.068;15.458;2023-07-02T14:50:24;29.90;58.40
13268;DHT22;6702;47.068;15.458;2023-07-02T14:53:28;29.80;59.20
13268;DHT22;6702;47.068;15.458;2023-07-02T14:56:33;29.50;59.90
13268;DHT22;6702;47.068;15.458;2023-07-02T14:59:39;29.30;60.40
13268;DHT22;6702;47.068;15.458;2023-07-02T15:02:44;29.20;61.10
13268;DHT22;6702;47.068;15.458;2023-07-02T15:05:48;29.20;61.20
13268;DHT22;6702;47.068;15.458;2023-07-02T15:08:56;29.00;61.70
13268;DHT22;6702;47.068;15.458;2023-07-02T15:12:00;28.90;62.50
13268;DHT22;6702;47.068;15.458;2023-07-02T15:15:03;28.90;63.00
13268;DHT22;6702;47.068;15.458;2023-07-02T15:18:09;29.00;63.30
13268;DHT22;6702;47.068;15.458;2023-07-02T15:21:13;29.00;63.10
13268;DHT22;6702;47.068;15.458;2023-07-02T15:24:17;29.10;63.60
13268;DHT22;6702;47.068;15.458;2023-07-02T15:27:29;29.00;64.30
13268;DHT22;6702;47.068;15.458;2023-07-02T15:30:36;29.00;64.50
13268;DHT22;6702;47.068;15.458;2023-07-02T15:33:41;29.00;64.00
13268;DHT22;6702;47.068;15.458;2023-07-02T15:36:53;29.00;63.70
13268;DHT22;6702;47.068;15.458;2023-07-02T15:39:57;28.80;64.50
13268;DHT22;6702;47.068;15.458;2023-07-02T15:43:00;28.80;64.60
13268;DHT22;6702;47.068;15.458;2023-07-02T15:46:08;28.70;65.50
13268;DHT22;6702;47.068;15.458;2023-07-02T15:49:13;28.60;66.20
13268;DHT22;6702;47.068;15.458;2023-07-02T15:52:17;28.50;66.20
13268;DHT22;6702;47.068;15.458;2023-07-02T15:55:21;28.50;65.60
13268;DHT22;6702;47.068;15.458;2023-07-02T15:58:29;28.50;65.90
13268;DHT22;6702;47.068;15.458;2023-07-02T16:01:38;28.50;66.20
13268;DHT22;6702;47.068;15.458;2023-07-02T16:04:45;28.40;66.40
13268;DHT22;6702;47.068;15.458;2023-07-02T16:07:49;28.20;66.50
13268;DHT22;6702;47.068;15.458;2023-07-02T16:10:52;28.10;66.40
13268;DHT22;6702;47.068;15.458;2023-07-02T16:13:55;28.20;66.80
13268;DHT22;6702;47.068;15.458;2023-07-02T16:16:59;28.20;67.30
13268;DHT22;6702;47.068;15.458;2023-07-02T16:20:05;28.10;67.60
13268;DHT22;6702;47.068;15.458;2023-07-02T16:23:08;28.10;67.80
13268;DHT22;6702;47.068;15.458;2023-07-02T16:26:12;27.90;67.80
13268;DHT22;6702;47.068;15.458;2023-07-02T16:29:15;27.90;68.40
13268;DHT22;6702;47.068;15.458;2023-07-02T16:32:19;27.90;69.10
13268;DHT22;6702;47.068;15.458;2023-07-02T16:35:27;27.90;69.10
13268;DHT22;6702;47.068;15.458;2023-07-02T16:38:33;27.70;69.20
13268;DHT22;6702;47.068;15.458;2023-07-02T16:41:38;27.60;69.80
13268;DHT22;6702;47.068;15.458;2023-07-02T16:44:58;27.30;69.10
13268;DHT22;6702;47.068;15.458;2023-07-02T16:48:08;27.20;69.70
13268;DHT22;6702;47.068;15.458;2023-07-02T16:51:14;27.10;69.60
13268;DHT22;6702;47.068;15.458;2023-07-02T16:54:18;27.10;69.40
13268;DHT22;6702;47.068;15.458;2023-07-02T16:57:22;26.90;69.90
13268;DHT22;6702;47.068;15.458;2023-07-02T17:00:31;27.00;70.00
13268;DHT22;6702;47.068;15.458;2023-07-02T17:03:37;26.90;70.30
13268;DHT22;6702;47.068;15.458;2023-07-02T17:06:45;26.90;70.30
13268;DHT22;6702;47.068;15.458;2023-07-02T17:09:50;27.00;69.90
13268;DHT22;6702;47.068;15.458;2023-07-02T17:12:54;26.90;68.90
13268;DHT22;6702;47.068;15.458;2023-07-02T17:15:58;26.80;68.90
13268;DHT22;6702;47.068;15.458;2023-07-02T17:19:01;26.70;69.60
13268;DHT22;6702;47.068;15.458;2023-07-02T17:22:08;26.60;69.80
13268;DHT22;6702;47.068;15.458;2023-07-02T17:25:12;26.50;70.00
13268;DHT22;6702;47.068;15.458;2023-07-02T17:28:19;26.50;70.00
13268;DHT22;6702;47.068;15.458;2023-07-02T17:31:25;26.40;70.00
13268;DHT22;6702;47.068;15.458;2023-07-02T17:34:34;26.30;69.80
13268;DHT22;6702;47.068;15.458;2023-07-02T17:37:39;26.30;69.80
13268;DHT22;6702;47.068;15.458;2023-07-02T17:40:45;26.30;70.70
13268;DHT22;6702;47.068;15.458;2023-07-02T17:43:48;26.30;71.00
13268;DHT22;6702;47.068;15.458;2023-07-02T17:46:52;26.30;70.80
13268;DHT22;6702;47.068;15.458;2023-07-02T17:49:56;26.30;71.00
13268;DHT22;6702;47.068;15.458;2023-07-02T17:53:02;26.30;71.50
13268;DHT22;6702;47.068;15.458;2023-07-02T17:56:06;26.20;72.00
13268;DHT22;6702;47.068;15.458;2023-07-02T17:59:10;26.20;72.30
13268;DHT22;6702;47.068;15.458;2023-07-02T18:02:18;26.10;72.40
13268;DHT22;6702;47.068;15.458;2023-07-02T18:05:22;26.10;72.60
13268;DHT22;6702;47.068;15.458;2023-07-02T18:08:28;26.10;72.80
13268;DHT22;6702;47.068;15.458;2023-07-02T18:11:34;26.10;73.10
13268;DHT22;6702;47.068;15.458;2023-07-02T18:14:41;26.10;73.40
13268;DHT22;6702;47.068;15.458;2023-07-02T18:17:45;26.00;73.30
13268;DHT22;6702;47.068;15.458;2023-07-02T18:20:50;26.00;73.50
13268;DHT22;6702;47.068;15.458;2023-07-02T18:23:57;26.00;73.70
13268;DHT22;6702;47.068;15.458;2023-07-02T18:27:03;25.90;73.90
13268;DHT22;6702;47.068;15.458;2023-07-02T18:30:10;25.90;74.00
13268;DHT22;6702;47.068;15.458;2023-07-02T18:33:19;25.90;74.00
13268;DHT22;6702;47.068;15.458;2023-07-02T18:36:29;25.80;74.00
13268;DHT22;6702;47.068;15.458;2023-07-02T18:39:36;25.70;74.60
13268;DHT22;6702;47.068;15.458;2023-07-02T18:42:39;25.80;74.60
13268;DHT22;6702;47.068;15.458;2023-07-02T18:45:50;25.80;74.50
13268;DHT22;6702;47.068;15.458;2023-07-02T18:48:55;25.80;74.40
13268;DHT22;6702;47.068;15.458;2023-07-02T18:51:59;25.80;74.30
13268;DHT22;6702;47.068;15.458;2023-07-02T18:55:09;25.80;74.30
13268;DHT22;6702;47.068;15.458;2023-07-02T18:58:13;25.80;74.60
13268;DHT22;6702;47.068;15.458;2023-07-02T19:01:18;25.80;74.90
13268;DHT22;6702;47.068;15.458;2023-07-02T19:04:22;25.80;75.50
13268;DHT22;6702;47.068;15.458;2023-07-02T19:07:30;25.80;76.60
13268;DHT22;6702;47.068;15.458;2023-07-02T19:10:39;25.80;77.20
13268;DHT22;6702;47.068;15.458;2023-07-02T19:13:44;25.70;79.80
13268;DHT22;6702;47.068;15.458;2023-07-02T19:16:50;25.80;82.90
13268;DHT22;6702;47.068;15.458;2023-07-02T19:19:54;25.70;84.90
13268;DHT22;6702;47.068;15.458;2023-07-02T19:23:01;25.70;84.00
13268;DHT22;6702;47.068;15.458;2023-07-02T19:26:08;25.70;84.80
13268;DHT22;6702;47.068;15.458;2023-07-02T19:29:13;25.70;84.90